sensor_id;sensor_type;location;lat;lon;timestamp;pressure;altitude;pressure_sealevel;temperature;humidity
76794;BME280;65745;50.278;18.192;2023-04-25T00:00:22;98710.09;;;10.58;79.14
76794;BME280;65745;50.278;18.192;2023-04-25T00:03:14;98706.98;;;10.63;79.01
76794;BME280;65745;50.278;18.192;2023-04-25T00:05:47;98707.16;;;10.70;78.99
76794;BME280;65745;50.278;18.192;2023-04-25T00:08:19;98704.94;;;10.67;78.64
76794;BME280;65745;50.278;18.192;2023-04-25T00:10:51;98704.75;;;10.59;78.37
76794;BME280;65745;50.278;18.192;2023-04-25T00:13:23;98705.42;;;10.57;78.22
76794;BME280;65745;50.278;18.192;2023-04-25T00:15:56;98705.09;;;10.53;77.90
76794;BME280;65745;50.278;18.192;2023-04-25T00:18:29;98708.70;;;10.47;77.94
76794;BME280;65745;50.278;18.192;2023-04-25T00:21:01;98706.13;;;10.45;77.96
76794;BME280;65745;50.278;18.192;2023-04-25T00:23:33;98703.70;;;10.47;78.16
76794;BME280;65745;50.278;18.192;2023-04-25T00:26:06;98704.39;;;10.47;77.99
76794;BME280;65745;50.278;18.192;2023-04-25T00:28:38;98704.39;;;10.43;77.90
76794;BME280;65745;50.278;18.192;2023-04-25T00:31:10;98704.91;;;10.42;77.32
76794;BME280;65745;50.278;18.192;2023-04-25T00:33:42;98702.34;;;10.40;77.30
76794;BME280;65745;50.278;18.192;2023-04-25T00:36:15;98705.08;;;10.37;77.10
76794;BME280;65745;50.278;18.192;2023-04-25T00:38:47;98700.41;;;10.31;77.03
76794;BME280;65745;50.278;18.192;2023-04-25T00:41:20;98705.59;;;10.29;76.98
76794;BME280;65745;50.278;18.192;2023-04-25T00:43:52;98711.25;;;10.27;76.76
76794;BME280;65745;50.278;18.192;2023-04-25T00:46:26;98715.05;;;10.29;76.65
76794;BME280;65745;50.278;18.192;2023-04-25T00:48:58;98718.67;;;10.31;76.68
76794;BME280;65745;50.278;18.192;2023-04-25T00:51:30;98725.36;;;10.27;75.51
76794;BME280;65745;50.278;18.192;2023-04-25T00:54:05;98722.10;;;10.24;75.33
76794;BME280;65745;50.278;18.192;2023-04-25T00:56:37;98725.70;;;10.20;74.58
76794;BME280;65745;50.278;18.192;2023-04-25T00:59:10;98721.37;;;10.16;74.12
76794;BME280;65745;50.278;18.192;2023-04-25T01:01:42;98723.73;;;10.07;73.37
76794;BME280;65745;50.278;18.192;2023-04-25T01:04:15;98727.16;;;10.02;72.87
76794;BME280;65745;50.278;18.192;2023-04-25T01:06:48;98729.73;;;10.02;73.36
76794;BME280;65745;50.278;18.192;2023-04-25T01:09:22;98729.25;;;10.04;73.34
76794;BME280;65745;50.278;18.192;2023-04-25T01:11:54;98735.43;;;10.04;72.88
76794;BME280;65745;50.278;18.192;2023-04-25T01:14:26;98733.69;;;10.00;72.62
76794;BME280;65745;50.278;18.192;2023-04-25T01:16:59;98734.38;;;9.97;72.45
76794;BME280;65745;50.278;18.192;2023-04-25T01:19:32;98736.41;;;9.92;72.08
76794;BME280;65745;50.278;18.192;2023-04-25T01:22:05;98744.65;;;9.87;72.29
76794;BME280;65745;50.278;18.192;2023-04-25T01:24:40;98745.15;;;9.84;72.37
76794;BME280;65745;50.278;18.192;2023-04-25T01:27:13;98749.10;;;9.81;72.63
76794;BME280;65745;50.278;18.192;2023-04-25T01:29:46;98752.02;;;9.80;72.81
76794;BME280;65745;50.278;18.192;2023-04-25T01:32:19;98755.29;;;9.81;73.55
76794;BME280;65745;50.278;18.192;2023-04-25T01:34:52;98756.34;;;9.84;73.66
76794;BME280;65745;50.278;18.192;2023-04-25T01:37:24;98757.90;;;9.84;73.45
76794;BME280;65745;50.278;18.192;2023-04-25T01:39:56;98754.79;;;9.83;73.46
76794;BME280;65745;50.278;18.192;2023-04-25T01:42:28;98755.13;;;9.82;73.13
76794;BME280;65745;50.278;18.192;2023-04-25T01:45:01;98753.73;;;9.78;73.02
76794;BME280;65745;50.278;18.192;2023-04-25T01:47:33;98756.80;;;9.72;72.81
76794;BME280;65745;50.278;18.192;2023-04-25T01:50:07;98759.05;;;9.72;72.96
76794;BME280;65745;50.278;18.192;2023-04-25T01:52:40;98760.73;;;9.71;72.82
76794;BME280;65745;50.278;18.192;2023-04-25T01:55:13;98762.80;;;9.69;73.05
76794;BME280;65745;50.278;18.192;2023-04-25T01:58:03;98763.84;;;9.71;73.32
76794;BME280;65745;50.278;18.192;2023-04-25T02:01:06;98764.55;;;9.75;73.35
76794;BME280;65745;50.278;18.192;2023-04-25T02:03:43;98762.50;;;9.78;73.28
76794;BME280;65745;50.278;18.192;2023-04-25T02:06:27;98762.86;;;9.78;73.19
76794;BME280;65745;50.278;18.192;2023-04-25T02:09:00;98760.77;;;9.75;72.73
76794;BME280;65745;50.278;18.192;2023-04-25T02:11:32;98764.38;;;9.73;72.74
76794;BME280;65745;50.278;18.192;2023-04-25T02:14:23;98767.95;;;9.68;72.84
76794;BME280;65745;50.278;18.192;2023-04-25T02:17:30;98770.52;;;9.65;72.96
76794;BME280;65745;50.278;18.192;2023-04-25T02:20:05;98769.65;;;9.63;72.72
76794;BME280;65745;50.278;18.192;2023-04-25T02:22:37;98774.10;;;9.60;72.73
76794;BME280;65745;50.278;18.192;2023-04-25T02:25:12;98770.48;;;9.57;72.58
76794;BME280;65745;50.278;18.192;2023-04-25T02:27:44;98769.26;;;9.55;72.73
76794;BME280;65745;50.278;18.192;2023-04-25T02:30:16;98769.94;;;9.54;72.65
76794;BME280;65745;50.278;18.192;2023-04-25T02:32:48;98771.14;;;9.55;72.72
76794;BME280;65745;50.278;18.192;2023-04-25T02:35:21;98772.19;;;9.56;72.70
76794;BME280;65745;50.278;18.192;2023-04-25T02:37:53;98769.60;;;9.55;72.72
76794;BME280;65745;50.278;18.192;2023-04-25T02:40:26;98769.77;;;9.54;72.66
76794;BME280;65745;50.278;18.192;2023-04-25T02:42:58;98765.80;;;9.54;72.19
76794;BME280;65745;50.278;18.192;2023-04-25T02:45:30;98769.06;;;9.50;71.79
76794;BME280;65745;50.278;18.192;2023-04-25T02:48:02;98771.60;;;9.45;71.92
76794;BME280;65745;50.278;18.192;2023-04-25T02:50:35;98769.34;;;9.41;71.68
76794;BME280;65745;50.278;18.192;2023-04-25T02:53:07;98775.51;;;9.37;71.83
76794;BME280;65745;50.278;18.192;2023-04-25T02:55:43;98769.45;;;9.31;71.94
76794;BME280;65745;50.278;18.192;2023-04-25T02:58:16;98768.39;;;9.26;71.95
76794;BME280;65745;50.278;18.192;2023-04-25T03:00:53;98774.71;;;9.21;71.88
76794;BME280;65745;50.278;18.192;2023-04-25T03:03:25;98774.69;;;9.18;72.20
76794;BME280;65745;50.278;18.192;2023-04-25T03:05:58;98768.14;;;9.15;72.45
76794;BME280;65745;50.278;18.192;2023-04-25T03:08:32;98769.87;;;9.16;72.75
76794;BME280;65745;50.278;18.192;2023-04-25T03:11:05;98768.33;;;9.17;72.60
76794;BME280;65745;50.278;18.192;2023-04-25T03:13:38;98767.30;;;9.16;72.44
76794;BME280;65745;50.278;18.192;2023-04-25T03:16:11;98770.88;;;9.13;72.62
76794;BME280;65745;50.278;18.192;2023-04-25T03:18:44;98772.39;;;9.09;72.76
76794;BME280;65745;50.278;18.192;2023-04-25T03:21:16;98772.36;;;9.06;72.85
76794;BME280;65745;50.278;18.192;2023-04-25T03:23:48;98768.72;;;9.01;73.05
76794;BME280;65745;50.278;18.192;2023-04-25T03:26:21;98764.91;;;8.96;73.21
76794;BME280;65745;50.278;18.192;2023-04-25T03:28:53;98765.38;;;8.91;73.19
76794;BME280;65745;50.278;18.192;2023-04-25T03:31:25;98760.70;;;8.86;73.58
76794;BME280;65745;50.278;18.192;2023-04-25T03:33:57;98758.92;;;8.79;74.34
76794;BME280;65745;50.278;18.192;2023-04-25T03:36:29;98759.79;;;8.79;73.91
76794;BME280;65745;50.278;18.192;2023-04-25T03:39:01;98760.98;;;8.78;73.82
76794;BME280;65745;50.278;18.192;2023-04-25T03:41:34;98763.17;;;8.75;74.31
76794;BME280;65745;50.278;18.192;2023-04-25T03:44:11;98760.95;;;8.74;74.60
76794;BME280;65745;50.278;18.192;2023-04-25T03:46:43;98763.69;;;8.73;75.17
76794;BME280;65745;50.278;18.192;2023-04-25T03:49:15;98761.27;;;8.72;75.13
76794;BME280;65745;50.278;18.192;2023-04-25T03:52:04;98767.61;;;8.70;75.49
76794;BME280;65745;50.278;18.192;2023-04-25T03:54:39;98768.63;;;8.69;75.26
76794;BME280;65745;50.278;18.192;2023-04-25T03:57:15;98772.95;;;8.73;74.55
76794;BME280;65745;50.278;18.192;2023-04-25T03:59:47;98774.18;;;8.75;74.63
76794;BME280;65745;50.278;18.192;2023-04-25T04:02:19;98777.63;;;8.78;74.64
76794;BME280;65745;50.278;18.192;2023-04-25T04:04:52;98778.52;;;8.81;74.92
76794;BME280;65745;50.278;18.192;2023-04-25T04:07:27;98778.20;;;8.83;75.37
76794;BME280;65745;50.278;18.192;2023-04-25T04:10:00;98783.70;;;8.84;75.18
76794;BME280;65745;50.278;18.192;2023-04-25T04:12:38;98784.23;;;8.84;74.73
76794;BME280;65745;50.278;18.192;2023-04-25T04:15:11;98786.08;;;8.82;74.90
76794;BME280;65745;50.278;18.192;2023-04-25T04:17:46;98786.57;;;8.79;74.61
76794;BME280;65745;50.278;18.192;2023-04-25T04:20:18;98787.44;;;8.79;74.23
76794;BME280;65745;50.278;18.192;2023-04-25T04:22:50;98788.95;;;8.77;74.09
76794;BME280;65745;50.278;18.192;2023-04-25T04:25:22;98790.66;;;8.77;74.16
76794;BME280;65745;50.278;18.192;2023-04-25T04:28:24;98791.73;;;8.80;73.97
76794;BME280;65745;50.278;18.192;2023-04-25T04:31:32;98790.83;;;8.76;73.90
76794;BME280;65745;50.278;18.192;2023-04-25T04:34:05;98790.84;;;8.75;73.91
76794;BME280;65745;50.278;18.192;2023-04-25T04:36:38;98790.16;;;8.78;73.76
76794;BME280;65745;50.278;18.192;2023-04-25T04:39:12;98791.91;;;8.82;73.84
76794;BME280;65745;50.278;18.192;2023-04-25T04:42:11;98790.42;;;8.86;74.08
76794;BME280;65745;50.278;18.192;2023-04-25T04:45:04;98789.61;;;8.93;74.14
76794;BME280;65745;50.278;18.192;2023-04-25T04:48:09;98789.30;;;8.97;73.77
76794;BME280;65745;50.278;18.192;2023-04-25T04:51:09;98795.19;;;9.03;73.59
76794;BME280;65745;50.278;18.192;2023-04-25T04:54:05;98800.73;;;9.06;73.39
76794;BME280;65745;50.278;18.192;2023-04-25T04:57:13;98799.69;;;9.07;73.37
76794;BME280;65745;50.278;18.192;2023-04-25T05:00:06;98803.64;;;9.09;73.22
76794;BME280;65745;50.278;18.192;2023-04-25T05:02:45;98804.02;;;9.10;73.01
76794;BME280;65745;50.278;18.192;2023-04-25T05:05:44;98800.07;;;9.12;72.83
76794;BME280;65745;50.278;18.192;2023-04-25T05:08:35;98802.13;;;9.13;72.91
76794;BME280;65745;50.278;18.192;2023-04-25T05:11:27;98797.66;;;9.13;73.11
76794;BME280;65745;50.278;18.192;2023-04-25T05:14:18;98801.66;;;9.17;73.15
76794;BME280;65745;50.278;18.192;2023-04-25T05:17:00;98803.09;;;9.24;73.01
76794;BME280;65745;50.278;18.192;2023-04-25T05:19:54;98800.90;;;9.32;73.25
76794;BME280;65745;50.278;18.192;2023-04-25T05:22:45;98803.52;;;9.38;73.21
76794;BME280;65745;50.278;18.192;2023-04-25T05:25:23;98804.25;;;9.42;72.92
76794;BME280;65745;50.278;18.192;2023-04-25T05:28:17;98805.99;;;9.47;72.58
76794;BME280;65745;50.278;18.192;2023-04-25T05:31:12;98806.53;;;9.50;72.48
76794;BME280;65745;50.278;18.192;2023-04-25T05:34:07;98808.61;;;9.52;72.47
76794;BME280;65745;50.278;18.192;2023-04-25T05:37:05;98806.57;;;9.56;72.53
76794;BME280;65745;50.278;18.192;2023-04-25T05:39:43;98804.35;;;9.60;72.03
76794;BME280;65745;50.278;18.192;2023-04-25T05:42:29;98802.66;;;9.64;71.95
76794;BME280;65745;50.278;18.192;2023-04-25T05:45:11;98801.63;;;9.62;71.63
76794;BME280;65745;50.278;18.192;2023-04-25T05:48:02;98799.75;;;9.66;71.76
76794;BME280;65745;50.278;18.192;2023-04-25T05:51:01;98798.27;;;9.77;71.78
76794;BME280;65745;50.278;18.192;2023-04-25T05:54:11;98795.23;;;9.89;71.66
76794;BME280;65745;50.278;18.192;2023-04-25T05:56:43;98795.61;;;9.99;72.10
76794;BME280;65745;50.278;18.192;2023-04-25T05:59:15;98799.09;;;10.07;71.61
76794;BME280;65745;50.278;18.192;2023-04-25T06:01:48;98800.49;;;10.13;71.34
76794;BME280;65745;50.278;18.192;2023-04-25T06:04:21;98796.95;;;10.23;71.04
76794;BME280;65745;50.278;18.192;2023-04-25T06:06:54;98803.00;;;10.30;71.01
76794;BME280;65745;50.278;18.192;2023-04-25T06:09:26;98801.13;;;10.37;70.35
76794;BME280;65745;50.278;18.192;2023-04-25T06:11:58;98801.48;;;10.42;70.08
76794;BME280;65745;50.278;18.192;2023-04-25T06:14:31;98802.88;;;10.48;69.82
76794;BME280;65745;50.278;18.192;2023-04-25T06:17:03;98803.91;;;10.52;69.36
76794;BME280;65745;50.278;18.192;2023-04-25T06:19:37;98808.05;;;10.54;69.47
76794;BME280;65745;50.278;18.192;2023-04-25T06:22:09;98804.95;;;10.54;68.86
76794;BME280;65745;50.278;18.192;2023-04-25T06:24:42;98801.50;;;10.52;68.51
76794;BME280;65745;50.278;18.192;2023-04-25T06:27:15;98800.48;;;10.57;68.98
76794;BME280;65745;50.278;18.192;2023-04-25T06:29:47;98800.50;;;10.62;68.60
76794;BME280;65745;50.278;18.192;2023-04-25T06:32:19;98799.45;;;10.68;68.39
76794;BME280;65745;50.278;18.192;2023-04-25T06:34:51;98799.83;;;10.71;68.00
76794;BME280;65745;50.278;18.192;2023-04-25T06:37:23;98801.36;;;10.73;67.64
76794;BME280;65745;50.278;18.192;2023-04-25T06:39:56;98796.05;;;10.71;67.03
76794;BME280;65745;50.278;18.192;2023-04-25T06:42:28;98797.40;;;10.73;66.92
76794;BME280;65745;50.278;18.192;2023-04-25T06:45:02;98800.16;;;10.74;67.00
76794;BME280;65745;50.278;18.192;2023-04-25T06:47:34;98802.94;;;10.82;67.20
76794;BME280;65745;50.278;18.192;2023-04-25T06:50:08;98803.30;;;10.88;67.21
76794;BME280;65745;50.278;18.192;2023-04-25T06:52:42;98799.17;;;10.92;66.68
76794;BME280;65745;50.278;18.192;2023-04-25T06:55:14;98798.30;;;10.98;66.92
76794;BME280;65745;50.278;18.192;2023-04-25T06:58:05;98799.67;;;11.08;66.57
76794;BME280;65745;50.278;18.192;2023-04-25T07:01:04;98799.50;;;11.17;65.86
76794;BME280;65745;50.278;18.192;2023-04-25T07:03:36;98801.06;;;11.20;65.37
76794;BME280;65745;50.278;18.192;2023-04-25T07:06:13;98802.09;;;11.19;65.09
76794;BME280;65745;50.278;18.192;2023-04-25T07:08:45;98802.26;;;11.19;64.65
76794;BME280;65745;50.278;18.192;2023-04-25T07:11:17;98803.98;;;11.28;65.31
76794;BME280;65745;50.278;18.192;2023-04-25T07:13:49;98802.95;;;11.31;64.83
76794;BME280;65745;50.278;18.192;2023-04-25T07:16:21;98802.26;;;11.27;64.17
76794;BME280;65745;50.278;18.192;2023-04-25T07:18:54;98799.84;;;11.34;64.79
76794;BME280;65745;50.278;18.192;2023-04-25T07:21:26;98801.55;;;11.46;64.32
76794;BME280;65745;50.278;18.192;2023-04-25T07:23:59;98803.78;;;11.56;64.12
76794;BME280;65745;50.278;18.192;2023-04-25T07:26:34;98802.73;;;11.57;63.93
76794;BME280;65745;50.278;18.192;2023-04-25T07:29:25;98798.07;;;11.61;64.01
76794;BME280;65745;50.278;18.192;2023-04-25T07:31:57;98799.45;;;11.66;63.86
76794;BME280;65745;50.278;18.192;2023-04-25T07:34:29;98800.48;;;11.70;63.44
76794;BME280;65745;50.278;18.192;2023-04-25T07:37:03;98807.20;;;11.68;63.66
76794;BME280;65745;50.278;18.192;2023-04-25T07:39:42;98806.16;;;11.71;63.44
76794;BME280;65745;50.278;18.192;2023-04-25T07:42:15;98800.64;;;11.72;63.50
76794;BME280;65745;50.278;18.192;2023-04-25T07:44:49;98802.04;;;11.77;63.55
76794;BME280;65745;50.278;18.192;2023-04-25T07:47:22;98799.96;;;11.80;63.41
76794;BME280;65745;50.278;18.192;2023-04-25T07:49:55;98802.02;;;11.81;63.31
76794;BME280;65745;50.278;18.192;2023-04-25T07:52:28;98805.65;;;11.81;62.54
76794;BME280;65745;50.278;18.192;2023-04-25T07:55:08;98805.30;;;11.81;62.86
76794;BME280;65745;50.278;18.192;2023-04-25T07:58:00;98808.91;;;11.88;62.90
76794;BME280;65745;50.278;18.192;2023-04-25T08:00:34;98806.81;;;11.95;62.58
76794;BME280;65745;50.278;18.192;2023-04-25T08:03:44;98805.79;;;11.96;61.96
76794;BME280;65745;50.278;18.192;2023-04-25T08:06:23;98801.79;;;12.02;62.86
76794;BME280;65745;50.278;18.192;2023-04-25T08:09:08;98798.14;;;12.04;62.06
76794;BME280;65745;50.278;18.192;2023-04-25T08:11:42;98796.05;;;12.09;62.67
76794;BME280;65745;50.278;18.192;2023-04-25T08:14:15;98795.84;;;12.20;62.24
76794;BME280;65745;50.278;18.192;2023-04-25T08:16:48;98793.73;;;12.28;62.04
76794;BME280;65745;50.278;18.192;2023-04-25T08:19:20;98796.28;;;12.38;61.84
76794;BME280;65745;50.278;18.192;2023-04-25T08:21:53;98799.88;;;12.43;60.48
76794;BME280;65745;50.278;18.192;2023-04-25T08:24:30;98802.62;;;12.46;60.26
76794;BME280;65745;50.278;18.192;2023-04-25T08:27:03;98807.27;;;12.51;60.17
76794;BME280;65745;50.278;18.192;2023-04-25T08:29:35;98809.64;;;12.55;60.21
76794;BME280;65745;50.278;18.192;2023-04-25T08:32:07;98810.34;;;12.57;60.21
76794;BME280;65745;50.278;18.192;2023-04-25T08:34:42;98810.34;;;12.56;59.90
76794;BME280;65745;50.278;18.192;2023-04-25T08:37:14;98813.62;;;12.57;59.83
76794;BME280;65745;50.278;18.192;2023-04-25T08:39:52;98812.73;;;12.61;59.54
76794;BME280;65745;50.278;18.192;2023-04-25T08:42:48;98815.97;;;12.69;59.07
76794;BME280;65745;50.278;18.192;2023-04-25T08:45:21;98814.73;;;12.74;58.01
76794;BME280;65745;50.278;18.192;2023-04-25T08:47:58;98815.90;;;12.79;57.03
76794;BME280;65745;50.278;18.192;2023-04-25T08:50:31;98813.59;;;12.87;57.39
76794;BME280;65745;50.278;18.192;2023-04-25T08:53:06;98814.93;;;12.96;57.78
76794;BME280;65745;50.278;18.192;2023-04-25T08:55:42;98812.94;;;13.09;58.03
76794;BME280;65745;50.278;18.192;2023-04-25T08:58:15;98819.45;;;13.16;57.43
76794;BME280;65745;50.278;18.192;2023-04-25T09:00:48;98818.58;;;13.18;57.10
76794;BME280;65745;50.278;18.192;2023-04-25T09:03:23;98818.05;;;13.20;57.31
76794;BME280;65745;50.278;18.192;2023-04-25T09:05:56;98816.77;;;13.29;57.58
76794;BME280;65745;50.278;18.192;2023-04-25T09:08:29;98816.02;;;13.35;56.98
76794;BME280;65745;50.278;18.192;2023-04-25T09:11:02;98818.20;;;13.43;57.02
76794;BME280;65745;50.278;18.192;2023-04-25T09:13:34;98818.14;;;13.49;56.12
76794;BME280;65745;50.278;18.192;2023-04-25T09:16:25;98818.42;;;13.57;56.38
76794;BME280;65745;50.278;18.192;2023-04-25T09:19:29;98823.54;;;13.63;56.05
76794;BME280;65745;50.278;18.192;2023-04-25T09:22:19;98825.03;;;13.71;53.85
76794;BME280;65745;50.278;18.192;2023-04-25T09:24:52;98820.07;;;13.81;54.31
76794;BME280;65745;50.278;18.192;2023-04-25T09:27:27;98815.47;;;13.91;53.86
76794;BME280;65745;50.278;18.192;2023-04-25T09:30:08;98818.05;;;14.08;54.12
76794;BME280;65745;50.278;18.192;2023-04-25T09:33:05;98816.55;;;14.17;55.00
76794;BME280;65745;50.278;18.192;2023-04-25T09:35:40;98816.73;;;14.16;55.28
76794;BME280;65745;50.278;18.192;2023-04-25T09:38:16;98814.23;;;14.22;54.95
76794;BME280;65745;50.278;18.192;2023-04-25T09:40:53;98809.92;;;14.36;53.69
76794;BME280;65745;50.278;18.192;2023-04-25T09:43:48;98807.64;;;14.53;53.70
76794;BME280;65745;50.278;18.192;2023-04-25T09:46:21;98809.41;;;14.62;53.17
76794;BME280;65745;50.278;18.192;2023-04-25T09:48:58;98810.50;;;14.71;53.29
76794;BME280;65745;50.278;18.192;2023-04-25T09:51:35;98812.29;;;14.79;52.86
76794;BME280;65745;50.278;18.192;2023-04-25T09:54:08;98811.86;;;14.83;52.91
76794;BME280;65745;50.278;18.192;2023-04-25T09:56:49;98809.34;;;14.79;52.86
76794;BME280;65745;50.278;18.192;2023-04-25T09:59:23;98810.23;;;14.78;52.85
76794;BME280;65745;50.278;18.192;2023-04-25T10:01:56;98807.20;;;14.83;51.56
76794;BME280;65745;50.278;18.192;2023-04-25T10:04:35;98810.37;;;14.81;52.00
76794;BME280;65745;50.278;18.192;2023-04-25T10:07:16;98812.40;;;14.83;51.80
76794;BME280;65745;50.278;18.192;2023-04-25T10:09:50;98810.48;;;14.84;52.13
76794;BME280;65745;50.278;18.192;2023-04-25T10:12:27;98811.95;;;14.89;51.72
76794;BME280;65745;50.278;18.192;2023-04-25T10:15:01;98810.21;;;15.02;52.26
76794;BME280;65745;50.278;18.192;2023-04-25T10:17:35;98810.15;;;15.06;51.37
76794;BME280;65745;50.278;18.192;2023-04-25T10:20:09;98806.60;;;15.00;51.54
76794;BME280;65745;50.278;18.192;2023-04-25T10:22:44;98801.83;;;15.06;50.87
76794;BME280;65745;50.278;18.192;2023-04-25T10:25:17;98800.18;;;15.11;49.32
76794;BME280;65745;50.278;18.192;2023-04-25T10:27:51;98799.05;;;15.27;50.94
76794;BME280;65745;50.278;18.192;2023-04-25T10:30:23;98799.46;;;15.43;51.08
76794;BME280;65745;50.278;18.192;2023-04-25T10:32:56;98796.69;;;15.55;50.88
76794;BME280;65745;50.278;18.192;2023-04-25T10:35:29;98795.84;;;15.63;50.29
76794;BME280;65745;50.278;18.192;2023-04-25T10:38:04;98794.15;;;15.61;48.71
76794;BME280;65745;50.278;18.192;2023-04-25T10:40:37;98797.55;;;15.65;49.41
76794;BME280;65745;50.278;18.192;2023-04-25T10:43:39;98793.36;;;15.74;48.89
76794;BME280;65745;50.278;18.192;2023-04-25T10:46:19;98792.30;;;15.76;48.80
76794;BME280;65745;50.278;18.192;2023-04-25T10:48:55;98791.15;;;15.91;48.97
76794;BME280;65745;50.278;18.192;2023-04-25T10:51:28;98787.73;;;16.05;48.81
76794;BME280;65745;50.278;18.192;2023-04-25T10:54:21;98786.93;;;16.19;47.63
76794;BME280;65745;50.278;18.192;2023-04-25T10:56:59;98783.84;;;16.18;46.36
76794;BME280;65745;50.278;18.192;2023-04-25T10:59:33;98780.27;;;16.22;48.01
76794;BME280;65745;50.278;18.192;2023-04-25T11:02:12;98781.37;;;16.20;47.40
76794;BME280;65745;50.278;18.192;2023-04-25T11:04:45;98778.50;;;16.24;46.98
76794;BME280;65745;50.278;18.192;2023-04-25T11:07:26;98782.27;;;16.34;48.42
76794;BME280;65745;50.278;18.192;2023-04-25T11:10:03;98781.58;;;16.50;48.72
76794;BME280;65745;50.278;18.192;2023-04-25T11:12:35;98777.25;;;16.57;46.30
76794;BME280;65745;50.278;18.192;2023-04-25T11:15:09;98777.23;;;16.67;47.62
76794;BME280;65745;50.278;18.192;2023-04-25T11:17:42;98776.61;;;16.71;47.63
76794;BME280;65745;50.278;18.192;2023-04-25T11:20:17;98777.23;;;16.68;47.20
76794;BME280;65745;50.278;18.192;2023-04-25T11:22:49;98776.75;;;16.66;46.87
76794;BME280;65745;50.278;18.192;2023-04-25T11:25:24;98784.66;;;16.62;45.72
76794;BME280;65745;50.278;18.192;2023-04-25T11:27:58;98778.69;;;16.72;46.96
76794;BME280;65745;50.278;18.192;2023-04-25T11:30:32;98783.13;;;16.82;47.14
76794;BME280;65745;50.278;18.192;2023-04-25T11:33:04;98780.90;;;16.96;47.30
76794;BME280;65745;50.278;18.192;2023-04-25T11:35:36;98782.14;;;17.02;46.44
76794;BME280;65745;50.278;18.192;2023-04-25T11:38:08;98781.61;;;16.96;44.95
76794;BME280;65745;50.278;18.192;2023-04-25T11:40:41;98779.95;;;16.85;46.05
76794;BME280;65745;50.278;18.192;2023-04-25T11:43:13;98781.17;;;16.85;46.18
76794;BME280;65745;50.278;18.192;2023-04-25T11:45:49;98784.99;;;16.92;45.55
76794;BME280;65745;50.278;18.192;2023-04-25T11:48:22;98782.33;;;16.94;45.78
76794;BME280;65745;50.278;18.192;2023-04-25T11:50:56;98782.23;;;16.99;45.66
76794;BME280;65745;50.278;18.192;2023-04-25T11:53:28;98776.41;;;17.02;44.83
76794;BME280;65745;50.278;18.192;2023-04-25T11:56:00;98777.17;;;16.99;45.52
76794;BME280;65745;50.278;18.192;2023-04-25T11:58:33;98782.61;;;17.04;45.72
76794;BME280;65745;50.278;18.192;2023-04-25T12:01:28;98783.58;;;17.21;45.49
76794;BME280;65745;50.278;18.192;2023-04-25T12:04:15;98778.23;;;17.33;45.88
76794;BME280;65745;50.278;18.192;2023-04-25T12:06:49;98776.59;;;17.57;44.78
76794;BME280;65745;50.278;18.192;2023-04-25T12:09:27;98770.17;;;17.69;44.84
76794;BME280;65745;50.278;18.192;2023-04-25T12:12:01;98766.72;;;17.68;45.13
76794;BME280;65745;50.278;18.192;2023-04-25T12:14:35;98768.27;;;17.55;44.29
76794;BME280;65745;50.278;18.192;2023-04-25T12:17:07;98768.52;;;17.39;45.26
76794;BME280;65745;50.278;18.192;2023-04-25T12:19:41;98769.86;;;17.13;44.98
76794;BME280;65745;50.278;18.192;2023-04-25T12:22:24;98773.98;;;17.02;45.73
76794;BME280;65745;50.278;18.192;2023-04-25T12:24:56;98775.16;;;16.89;44.21
76794;BME280;65745;50.278;18.192;2023-04-25T12:27:32;98773.10;;;16.88;45.01
76794;BME280;65745;50.278;18.192;2023-04-25T12:30:05;98772.30;;;16.84;44.52
76794;BME280;65745;50.278;18.192;2023-04-25T12:32:38;98771.17;;;16.88;45.54
76794;BME280;65745;50.278;18.192;2023-04-25T12:35:11;98767.64;;;16.91;45.09
76794;BME280;65745;50.278;18.192;2023-04-25T12:37:43;98761.77;;;16.88;46.03
76794;BME280;65745;50.278;18.192;2023-04-25T12:40:15;98764.06;;;16.94;45.53
76794;BME280;65745;50.278;18.192;2023-04-25T12:42:47;98764.80;;;17.07;45.95
76794;BME280;65745;50.278;18.192;2023-04-25T12:45:19;98762.05;;;17.33;45.36
76794;BME280;65745;50.278;18.192;2023-04-25T12:47:51;98764.90;;;17.58;45.14
76794;BME280;65745;50.278;18.192;2023-04-25T12:50:24;98760.52;;;17.59;43.58
76794;BME280;65745;50.278;18.192;2023-04-25T12:52:57;98763.31;;;17.38;43.79
76794;BME280;65745;50.278;18.192;2023-04-25T12:55:29;98762.30;;;17.23;44.44
76794;BME280;65745;50.278;18.192;2023-04-25T12:58:01;98758.92;;;16.91;43.46
76794;BME280;65745;50.278;18.192;2023-04-25T13:00:33;98752.98;;;16.70;43.07
76794;BME280;65745;50.278;18.192;2023-04-25T13:03:06;98753.42;;;16.88;43.90
76794;BME280;65745;50.278;18.192;2023-04-25T13:05:38;98744.87;;;17.58;44.17
76794;BME280;65745;50.278;18.192;2023-04-25T13:08:10;98745.82;;;18.58;43.51
76794;BME280;65745;50.278;18.192;2023-04-25T13:10:43;98744.77;;;19.39;42.07
76794;BME280;65745;50.278;18.192;2023-04-25T13:13:15;98743.36;;;19.89;41.26
76794;BME280;65745;50.278;18.192;2023-04-25T13:15:47;98742.90;;;20.48;40.82
76794;BME280;65745;50.278;18.192;2023-04-25T13:18:20;98743.75;;;21.01;40.03
76794;BME280;65745;50.278;18.192;2023-04-25T13:20:57;98740.05;;;20.84;39.13
76794;BME280;65745;50.278;18.192;2023-04-25T13:23:30;98733.83;;;19.86;37.91
76794;BME280;65745;50.278;18.192;2023-04-25T13:26:02;98740.25;;;19.43;39.64
76794;BME280;65745;50.278;18.192;2023-04-25T13:28:34;98744.37;;;19.04;39.86
76794;BME280;65745;50.278;18.192;2023-04-25T13:31:06;98750.41;;;18.38;40.70
76794;BME280;65745;50.278;18.192;2023-04-25T13:33:39;98750.88;;;17.74;42.33
76794;BME280;65745;50.278;18.192;2023-04-25T13:36:11;98758.98;;;17.17;43.84
76794;BME280;65745;50.278;18.192;2023-04-25T13:38:43;98763.17;;;16.73;44.66
76794;BME280;65745;50.278;18.192;2023-04-25T13:41:18;98757.02;;;16.36;45.36